createdAt,value
2023-04-16T00:01:41.812Z,7.78
2023-04-16T00:04:09.793Z,9.90
2023-04-16T00:06:37.641Z,8.55
2023-04-16T00:09:06.767Z,8.10
2023-04-16T00:11:34.487Z,6.70
2023-04-16T00:14:02.339Z,5.05
2023-04-16T00:16:30.332Z,10.25
2023-04-16T00:18:58.063Z,12.30
2023-04-16T00:21:26.424Z,12.05
2023-04-16T00:23:54.905Z,9.00
2023-04-16T00:26:23.962Z,8.60
2023-04-16T00:28:51.669Z,5.47
2023-04-16T00:31:19.469Z,9.18
2023-04-16T00:33:47.205Z,7.03
2023-04-16T00:36:14.964Z,6.60
2023-04-16T00:38:42.676Z,8.13
2023-04-16T00:41:10.474Z,7.43
2023-04-16T00:43:39.562Z,9.88
2023-04-16T00:46:07.977Z,7.75
2023-04-16T00:48:36.693Z,6.07
2023-04-16T00:51:06.237Z,7.63
2023-04-16T00:53:35.036Z,4.80
2023-04-16T00:56:04.138Z,7.07
2023-04-16T00:58:32.317Z,6.65
2023-04-16T01:01:01.458Z,8.52
2023-04-16T01:03:39.133Z,11.82
2023-04-16T01:06:07.298Z,7.47
2023-04-16T01:08:35.174Z,11.13
2023-04-16T01:11:03.425Z,7.07
2023-04-16T01:13:31.408Z,9.45
2023-04-16T01:15:59.137Z,9.07
2023-04-16T01:18:28.253Z,9.00
2023-04-16T01:20:57.315Z,9.05
2023-04-16T01:23:25.125Z,7.95
2023-04-16T01:25:52.812Z,7.00
2023-04-16T01:28:20.587Z,10.60
2023-04-16T01:30:48.366Z,10.55
2023-04-16T01:33:18.081Z,10.52
2023-04-16T01:35:45.975Z,10.60
2023-04-16T01:38:15.056Z,7.80
2023-04-16T01:40:42.746Z,9.30
2023-04-16T01:43:10.475Z,10.13
2023-04-16T01:45:38.152Z,6.32
2023-04-16T01:48:06.362Z,10.43
2023-04-16T01:50:34.687Z,8.13
2023-04-16T01:53:04.993Z,9.02
2023-04-16T01:55:35.172Z,7.20
2023-04-16T01:58:02.870Z,9.05
2023-04-16T02:00:30.689Z,7.63
2023-04-16T02:02:58.557Z,7.75
2023-04-16T02:05:26.336Z,7.88
2023-04-16T02:07:54.052Z,8.75
2023-04-16T02:10:22.174Z,7.75
2023-04-16T02:12:51.254Z,9.75
2023-04-16T02:15:19.109Z,8.60
2023-04-16T02:17:48.712Z,8.52
2023-04-16T02:20:17.711Z,7.55
2023-04-16T02:22:45.560Z,10.60
2023-04-16T02:25:14.240Z,11.70
2023-04-16T02:27:42.021Z,11.77
2023-04-16T02:30:12.424Z,9.10
2023-04-16T02:32:40.316Z,8.65
2023-04-16T02:35:08.772Z,9.73
2023-04-16T02:37:36.486Z,10.70
2023-04-16T02:40:04.213Z,5.72
2023-04-16T02:42:31.887Z,10.80
2023-04-16T02:44:59.583Z,9.23
2023-04-16T02:47:28.670Z,7.38
2023-04-16T02:49:56.369Z,5.90
2023-04-16T02:52:24.049Z,6.18
2023-04-16T02:54:51.707Z,8.40
2023-04-16T02:57:19.385Z,5.28
2023-04-16T02:59:47.083Z,7.97
2023-04-16T03:02:14.928Z,9.77
2023-04-16T03:04:44.128Z,7.32
2023-04-16T03:07:13.015Z,8.40
2023-04-16T03:09:40.917Z,9.18
2023-04-16T03:12:08.653Z,7.15
2023-04-16T03:14:36.339Z,10.27
2023-04-16T03:17:04.039Z,6.90
2023-04-16T03:19:31.733Z,8.23
2023-04-16T03:22:00.824Z,9.20
2023-04-16T03:24:29.471Z,6.20
2023-04-16T03:26:58.789Z,10.73
2023-04-16T03:29:26.813Z,7.32
2023-04-16T03:31:54.601Z,9.40
2023-04-16T03:34:22.261Z,9.25
2023-04-16T03:36:49.967Z,7.60
2023-04-16T03:39:19.054Z,10.85
2023-04-16T03:41:46.962Z,11.98
2023-04-16T03:44:14.657Z,10.32
2023-04-16T03:46:42.517Z,10.40
2023-04-16T03:49:10.444Z,9.60
2023-04-16T03:51:38.231Z,10.43
2023-04-16T03:54:05.955Z,9.95
2023-04-16T03:56:35.526Z,7.85
2023-04-16T03:59:03.310Z,8.10
2023-04-16T04:01:30.991Z,8.98
2023-04-16T04:03:58.955Z,12.60
2023-04-16T04:06:27.493Z,12.25
2023-04-16T04:08:55.398Z,11.48
2023-04-16T04:11:23.071Z,12.05
2023-04-16T04:13:52.128Z,11.30
2023-04-16T04:16:19.891Z,8.68
2023-04-16T04:18:47.643Z,15.98
2023-04-16T04:21:15.372Z,12.55
2023-04-16T04:23:43.704Z,12.13
2023-04-16T04:26:11.471Z,12.80
2023-04-16T04:28:39.223Z,15.18
2023-04-16T04:31:08.313Z,15.13
2023-04-16T04:33:36.066Z,12.25
2023-04-16T04:36:03.966Z,11.15
2023-04-16T04:38:31.723Z,14.65
2023-04-16T04:41:00.156Z,12.60
2023-04-16T04:43:27.902Z,12.13
2023-04-16T04:45:55.638Z,12.75
2023-04-16T04:48:26.785Z,13.13
2023-04-16T04:50:54.735Z,14.25
2023-04-16T04:53:22.432Z,8.50
2023-04-16T04:55:53.115Z,9.80
2023-04-16T04:58:21.886Z,16.23
2023-04-16T05:00:49.646Z,12.88
2023-04-16T05:03:21.550Z,12.23
2023-04-16T05:05:50.800Z,10.30
2023-04-16T05:08:18.564Z,11.63
2023-04-16T05:10:46.288Z,15.18
2023-04-16T05:13:14.012Z,12.52
2023-04-16T05:15:41.706Z,9.70
2023-04-16T05:18:09.476Z,10.07
2023-04-16T05:20:37.823Z,14.10
2023-04-16T05:23:06.897Z,13.98
2023-04-16T05:25:34.836Z,11.63
2023-04-16T05:28:02.586Z,11.60
2023-04-16T05:30:30.487Z,15.25
2023-04-16T05:32:58.234Z,14.25
2023-04-16T05:35:25.959Z,16.20
2023-04-16T05:37:53.671Z,14.73
2023-04-16T05:40:22.846Z,14.65
2023-04-16T05:42:50.532Z,15.82
2023-04-16T05:45:18.282Z,21.90
2023-04-16T05:47:46.254Z,13.20
2023-04-16T05:50:14.067Z,13.18
2023-04-16T05:52:41.809Z,11.68
2023-04-16T05:55:10.477Z,12.50
2023-04-16T05:57:39.566Z,16.20
2023-04-16T06:00:10.179Z,12.85
2023-04-16T06:02:37.999Z,14.98
2023-04-16T06:05:06.480Z,12.60
2023-04-16T06:07:34.197Z,12.10
2023-04-16T06:10:01.903Z,16.88
2023-04-16T06:12:29.725Z,16.75
2023-04-16T06:14:58.776Z,15.77
2023-04-16T06:17:27.147Z,14.90
2023-04-16T06:19:54.919Z,13.77
2023-04-16T06:22:22.722Z,15.23
2023-04-16T06:24:50.625Z,15.75
2023-04-16T06:27:18.317Z,15.27
2023-04-16T06:29:46.078Z,15.80
2023-04-16T06:32:17.154Z,12.43
2023-04-16T06:34:44.908Z,15.18
2023-04-16T06:37:12.636Z,16.33
2023-04-16T06:39:40.661Z,13.25
2023-04-16T06:42:08.493Z,16.55
2023-04-16T06:44:36.688Z,15.88
2023-04-16T06:47:04.527Z,16.23
2023-04-16T06:49:33.694Z,11.23
2023-04-16T06:52:03.326Z,15.73
2023-04-16T06:54:32.467Z,17.55
2023-04-16T06:57:00.227Z,14.23
2023-04-16T06:59:27.964Z,15.63
2023-04-16T07:01:55.832Z,13.30
2023-04-16T07:04:24.494Z,15.65
2023-04-16T07:06:53.601Z,13.93
2023-04-16T07:09:21.391Z,12.63
2023-04-16T07:11:49.345Z,12.07
2023-04-16T07:14:17.177Z,15.93
2023-04-16T07:16:44.914Z,12.10
2023-04-16T07:19:12.642Z,12.38
2023-04-16T07:21:42.008Z,14.07
2023-04-16T07:24:11.334Z,11.60
2023-04-16T07:26:39.148Z,16.13
2023-04-16T07:29:07.097Z,12.80
2023-04-16T07:31:34.962Z,13.75
2023-04-16T07:34:02.796Z,17.27
2023-04-16T07:36:31.882Z,16.05
2023-04-16T07:38:59.587Z,14.80
2023-04-16T07:41:29.502Z,15.38
2023-04-16T07:43:57.720Z,15.80
2023-04-16T07:46:30.362Z,17.52
2023-04-16T07:48:58.254Z,11.55
2023-04-16T07:51:26.101Z,17.25
2023-04-16T07:53:53.842Z,16.50
2023-04-16T07:56:21.641Z,15.52
2023-04-16T07:58:50.703Z,15.25
2023-04-16T08:01:18.459Z,16.50
2023-04-16T08:03:46.385Z,13.35
2023-04-16T08:06:14.294Z,19.70
2023-04-16T08:08:42.182Z,16.83
2023-04-16T08:11:09.913Z,14.80
2023-04-16T08:13:37.649Z,16.15
2023-04-16T08:16:07.556Z,14.80
2023-04-16T08:18:35.486Z,18.88
2023-04-16T08:21:03.234Z,14.70
2023-04-16T08:23:30.965Z,22.50
2023-04-16T08:25:58.728Z,17.80
2023-04-16T08:28:26.466Z,18.35
2023-04-16T08:30:54.292Z,18.35
2023-04-16T08:33:23.691Z,15.07
2023-04-16T08:35:51.465Z,17.35
2023-04-16T08:38:19.166Z,19.10
2023-04-16T08:40:48.553Z,22.50
2023-04-16T08:43:18.877Z,18.30
2023-04-16T08:45:48.640Z,21.80
2023-04-16T08:48:16.461Z,18.65
2023-04-16T08:50:47.671Z,20.17
2023-04-16T08:53:20.271Z,18.92
2023-04-16T08:55:49.371Z,20.45
2023-04-16T08:58:20.921Z,18.77
2023-04-16T09:00:49.629Z,27.85
2023-04-16T09:03:19.833Z,18.45
2023-04-16T09:05:50.624Z,21.52
2023-04-16T09:08:19.006Z,19.77
2023-04-16T09:10:47.415Z,18.85
2023-04-16T09:13:16.963Z,17.80
2023-04-16T09:15:45.265Z,25.10
2023-04-16T09:18:13.130Z,25.08
2023-04-16T09:20:40.930Z,24.70
2023-04-16T09:23:10.423Z,23.50
2023-04-16T09:25:38.560Z,23.73
2023-04-16T09:28:06.677Z,24.05
2023-04-16T09:30:34.843Z,25.90
2023-04-16T09:33:16.560Z,25.73
2023-04-16T09:35:48.561Z,21.15
2023-04-16T09:38:18.194Z,24.85
2023-04-16T09:40:47.622Z,19.17
2023-04-16T09:43:17.486Z,22.98
2023-04-16T09:45:52.682Z,29.65
2023-04-16T09:48:30.220Z,18.60
2023-04-16T09:50:58.316Z,21.75
2023-04-16T09:53:28.324Z,25.48
2023-04-16T09:55:58.453Z,25.80
2023-04-16T09:58:26.433Z,23.63
2023-04-16T10:00:57.047Z,25.73
2023-04-16T10:03:31.843Z,23.10
2023-04-16T10:06:02.079Z,21.70
2023-04-16T10:08:31.263Z,23.98
2023-04-16T10:10:59.084Z,25.05
2023-04-16T10:13:27.898Z,24.05
2023-04-16T10:15:57.877Z,25.38
2023-04-16T10:18:25.854Z,23.33
2023-04-16T10:20:54.131Z,22.85
2023-04-16T10:23:22.927Z,24.10
2023-04-16T10:25:57.526Z,25.80
2023-04-16T10:28:26.118Z,30.48
2023-04-16T10:30:55.820Z,31.02
2023-04-16T10:33:25.184Z,25.25
2023-04-16T10:36:08.199Z,29.90
2023-04-16T10:38:38.927Z,26.58
2023-04-16T10:41:08.963Z,23.42
2023-04-16T10:43:41.963Z,23.48
2023-04-16T10:46:20.693Z,22.48
2023-04-16T10:48:50.392Z,24.13
2023-04-16T10:51:28.969Z,25.90
2023-04-16T10:53:57.833Z,27.83
2023-04-16T10:56:28.415Z,23.17
2023-04-16T10:58:57.152Z,26.00
2023-04-16T11:01:32.484Z,28.52
2023-04-16T11:04:04.285Z,18.83
2023-04-16T11:06:32.868Z,26.15
2023-04-16T11:09:00.590Z,22.17
2023-04-16T11:11:39.371Z,20.75
2023-04-16T11:14:10.361Z,26.08
2023-04-16T11:16:41.813Z,27.60
2023-04-16T11:19:16.395Z,23.33
2023-04-16T11:21:46.253Z,22.40
2023-04-16T11:24:14.045Z,21.65
2023-04-16T11:26:43.155Z,21.00
2023-04-16T11:29:15.950Z,25.75
2023-04-16T11:31:43.791Z,19.80
2023-04-16T11:34:11.726Z,20.67
2023-04-16T11:36:44.890Z,24.00
2023-04-16T11:39:12.922Z,22.73
2023-04-16T11:41:45.911Z,24.08
2023-04-16T11:44:21.826Z,23.48
2023-04-16T11:46:50.044Z,29.73
2023-04-16T11:49:18.393Z,24.13
2023-04-16T11:51:47.862Z,22.42
2023-04-16T11:54:22.702Z,21.67
2023-04-16T11:56:53.653Z,22.58
2023-04-16T11:59:22.958Z,22.42
2023-04-16T12:01:51.916Z,23.02
2023-04-16T12:04:23.819Z,20.70
2023-04-16T12:07:08.112Z,23.80
2023-04-16T12:09:40.009Z,20.23
2023-04-16T12:12:26.438Z,17.02
2023-04-16T12:14:56.791Z,21.77
2023-04-16T12:17:24.901Z,21.40
2023-04-16T12:19:53.854Z,22.98
2023-04-16T12:22:28.871Z,21.77
2023-04-16T12:25:00.707Z,24.42
2023-04-16T12:27:42.509Z,19.85
2023-04-16T12:30:11.382Z,17.95
2023-04-16T12:32:39.255Z,20.25
2023-04-16T12:35:07.500Z,16.67
2023-04-16T12:37:35.364Z,16.52
2023-04-16T12:40:04.778Z,18.40
2023-04-16T12:42:36.600Z,19.25
2023-04-16T12:45:05.241Z,19.48
2023-04-16T12:47:33.239Z,22.42
2023-04-16T12:50:01.247Z,15.70
2023-04-16T12:52:29.058Z,18.42
2023-04-16T12:54:56.867Z,15.27
2023-04-16T12:57:28.613Z,16.33
2023-04-16T12:59:58.270Z,15.15
2023-04-16T13:02:27.014Z,19.33
2023-04-16T13:04:55.554Z,15.13
2023-04-16T13:07:24.239Z,16.25
2023-04-16T13:09:52.063Z,19.48
2023-04-16T13:12:19.804Z,17.55
2023-04-16T13:14:48.176Z,16.55
2023-04-16T13:17:17.323Z,19.80
2023-04-16T13:19:45.749Z,15.85
2023-04-16T13:22:13.975Z,16.52
2023-04-16T13:24:41.719Z,13.10
2023-04-16T13:27:09.682Z,15.07
2023-04-16T13:29:37.654Z,14.18
2023-04-16T13:32:05.910Z,14.70
2023-04-16T13:34:35.099Z,15.65
2023-04-16T13:37:02.821Z,13.55
2023-04-16T13:39:30.520Z,17.90
2023-04-16T13:41:58.268Z,13.85
2023-04-16T13:44:26.015Z,13.25
2023-04-16T13:46:54.081Z,17.33
2023-04-16T13:49:22.692Z,15.80
2023-04-16T13:51:51.761Z,15.63
2023-04-16T13:54:19.456Z,18.05
2023-04-16T13:56:47.298Z,16.27
2023-04-16T13:59:16.688Z,15.52
2023-04-16T14:01:44.444Z,20.73
2023-04-16T14:04:12.220Z,21.75
2023-04-16T14:06:39.990Z,16.13
2023-04-16T14:09:10.804Z,15.02
2023-04-16T14:11:38.733Z,16.20
2023-04-16T14:14:06.636Z,18.20
2023-04-16T14:16:34.569Z,18.77
2023-04-16T14:19:02.281Z,15.30
2023-04-16T14:21:30.047Z,17.17
2023-04-16T14:23:57.773Z,15.05
2023-04-16T14:26:27.023Z,15.70
2023-04-16T14:28:54.816Z,15.95
2023-04-16T14:31:22.639Z,18.30
2023-04-16T14:33:50.449Z,18.10
2023-04-16T14:36:18.179Z,17.02
2023-04-16T14:38:45.918Z,19.63
2023-04-16T14:41:14.105Z,15.70
2023-04-16T14:43:44.381Z,16.60
2023-04-16T14:46:12.436Z,14.13
2023-04-16T14:48:40.214Z,13.95
2023-04-16T14:51:08.022Z,16.50
2023-04-16T14:53:36.535Z,18.67
2023-04-16T14:56:04.419Z,23.60
2023-04-16T14:58:32.619Z,18.77
2023-04-16T15:01:01.786Z,16.05
2023-04-16T15:03:31.203Z,15.85
2023-04-16T15:05:59.326Z,15.40
2023-04-16T15:08:27.178Z,14.82
2023-04-16T15:10:54.896Z,17.52
2023-04-16T15:13:22.551Z,17.65
2023-04-16T15:15:50.484Z,14.88
2023-04-16T15:18:19.596Z,15.15
2023-04-16T15:20:47.330Z,18.50
2023-04-16T15:23:15.077Z,18.10
2023-04-16T15:25:42.807Z,13.20
2023-04-16T15:28:10.556Z,14.55
2023-04-16T15:30:39.700Z,15.07
2023-04-16T15:33:07.655Z,19.02
2023-04-16T15:35:38.881Z,17.33
2023-04-16T15:38:06.596Z,25.73
2023-04-16T15:40:34.434Z,17.25
2023-04-16T15:43:02.160Z,20.92
2023-04-16T15:45:29.855Z,15.85
2023-04-16T15:47:57.590Z,15.90
2023-04-16T15:50:26.775Z,18.17
2023-04-16T15:52:55.905Z,16.33
2023-04-16T15:55:23.712Z,17.90
2023-04-16T15:57:51.436Z,20.42
2023-04-16T16:00:20.671Z,22.23
2023-04-16T16:02:48.542Z,18.25
2023-04-16T16:05:17.016Z,15.88
2023-04-16T16:07:45.538Z,17.42
2023-04-16T16:10:14.605Z,18.05
2023-04-16T16:12:42.458Z,20.42
2023-04-16T16:15:11.271Z,19.90
2023-04-16T16:17:39.227Z,13.35
2023-04-16T16:20:10.298Z,17.00
2023-04-16T16:22:39.120Z,19.80
2023-04-16T16:25:08.002Z,17.48
2023-04-16T16:27:37.198Z,19.05
2023-04-16T16:30:07.332Z,19.95
2023-04-16T16:32:35.147Z,17.95
2023-04-16T16:35:02.978Z,19.95
2023-04-16T16:37:30.761Z,20.88
2023-04-16T16:39:58.455Z,18.60
2023-04-16T16:42:26.579Z,19.05
2023-04-16T16:44:57.469Z,18.90
2023-04-16T16:47:25.447Z,18.95
2023-04-16T16:49:54.712Z,15.90
2023-04-16T16:52:23.969Z,16.23
2023-04-16T16:54:51.700Z,20.23
2023-04-16T16:57:20.123Z,18.73
2023-04-16T16:59:48.431Z,18.60
2023-04-16T17:02:17.547Z,16.65
2023-04-16T17:04:45.349Z,20.80
2023-04-16T17:07:13.036Z,20.73
2023-04-16T17:09:40.948Z,23.45
2023-04-16T17:12:08.723Z,20.13
2023-04-16T17:14:36.451Z,18.52
2023-04-16T17:17:04.179Z,18.40
2023-04-16T17:19:33.286Z,25.02
2023-04-16T17:22:00.997Z,26.08
2023-04-16T17:24:28.762Z,18.90
2023-04-16T17:26:56.976Z,23.50
2023-04-16T17:29:26.209Z,26.15
2023-04-16T17:31:54.213Z,20.48
2023-04-16T17:34:22.752Z,18.58
2023-04-16T17:36:51.824Z,16.25
2023-04-16T17:39:20.767Z,17.27
2023-04-16T17:41:54.059Z,18.50
2023-04-16T17:44:23.112Z,23.50
2023-04-16T17:46:50.890Z,19.13
2023-04-16T17:49:18.621Z,18.58
2023-04-16T17:51:46.379Z,19.08
2023-04-16T17:54:15.651Z,19.42
2023-04-16T17:56:43.394Z,21.05
2023-04-16T17:59:11.293Z,23.00
2023-04-16T18:01:39.080Z,18.33
2023-04-16T18:04:07.134Z,20.17
2023-04-16T18:06:35.024Z,20.70
2023-04-16T18:09:04.925Z,17.63
2023-04-16T18:11:34.140Z,14.65
2023-04-16T18:14:01.877Z,20.17
2023-04-16T18:16:29.554Z,22.30
2023-04-16T18:18:57.335Z,19.15
2023-04-16T18:21:25.004Z,18.65
2023-04-16T18:23:52.741Z,20.20
2023-04-16T18:26:22.513Z,19.45
2023-04-16T18:28:52.089Z,23.05
2023-04-16T18:31:21.336Z,18.65
2023-04-16T18:33:57.606Z,18.95
2023-04-16T18:36:26.512Z,18.55
2023-04-16T18:39:15.503Z,19.75
2023-04-16T18:41:43.607Z,18.33
2023-04-16T18:44:12.744Z,16.85
2023-04-16T18:46:40.482Z,21.48
2023-04-16T18:49:08.653Z,20.70
2023-04-16T18:51:36.600Z,21.48
2023-04-16T18:54:04.367Z,19.60
2023-04-16T18:56:32.087Z,19.33
2023-04-16T18:58:59.772Z,16.92
2023-04-16T19:01:28.940Z,19.85
2023-04-16T19:03:56.800Z,21.10
2023-04-16T19:06:24.610Z,15.10
2023-04-16T19:08:52.278Z,18.67
2023-04-16T19:11:20.032Z,17.48
2023-04-16T19:13:47.741Z,20.77
2023-04-16T19:16:15.834Z,20.83
2023-04-16T19:18:44.962Z,17.17
2023-04-16T19:21:12.631Z,18.58
2023-04-16T19:23:40.363Z,18.10
2023-04-16T19:26:08.116Z,19.35
2023-04-16T19:28:35.914Z,22.65
2023-04-16T19:31:03.627Z,19.60
2023-04-16T19:33:31.375Z,22.58
2023-04-16T19:36:01.731Z,19.40
2023-04-16T19:38:31.618Z,20.95
2023-04-16T19:40:59.358Z,24.98
2023-04-16T19:43:28.398Z,19.77
2023-04-16T19:45:57.807Z,17.75
2023-04-16T19:48:25.636Z,21.63
2023-04-16T19:50:53.473Z,19.60
2023-04-16T19:53:22.577Z,19.35
2023-04-16T19:55:50.512Z,20.88
2023-04-16T19:58:18.225Z,22.83
2023-04-16T20:00:47.243Z,22.67
2023-04-16T20:03:15.032Z,18.85
2023-04-16T20:05:42.780Z,15.63
2023-04-16T20:08:10.504Z,15.75
2023-04-16T20:10:39.598Z,19.23
2023-04-16T20:13:11.825Z,20.20
2023-04-16T20:15:39.587Z,21.08
2023-04-16T20:18:08.519Z,18.55
2023-04-16T20:20:37.835Z,18.13
2023-04-16T20:23:05.753Z,19.23
2023-04-16T20:25:33.504Z,21.33
2023-04-16T20:28:02.601Z,21.38
2023-04-16T20:30:30.993Z,23.45
2023-04-16T20:32:58.792Z,19.25
2023-04-16T20:35:27.076Z,21.90
2023-04-16T20:37:54.797Z,25.35
2023-04-16T20:40:24.022Z,21.48
2023-04-16T20:42:52.194Z,17.65
2023-04-16T20:45:21.833Z,22.73
2023-04-16T20:47:49.518Z,20.52
2023-04-16T20:50:17.282Z,16.35
2023-04-16T20:52:44.951Z,18.60
2023-04-16T20:55:12.683Z,21.60
2023-04-16T20:57:40.593Z,23.00
2023-04-16T21:00:11.999Z,19.50
2023-04-16T21:02:41.269Z,21.40
2023-04-16T21:05:13.732Z,20.95
2023-04-16T21:07:42.295Z,28.05
2023-04-16T21:10:11.204Z,18.15
2023-04-16T21:12:39.000Z,16.38
2023-04-16T21:15:07.468Z,20.80
2023-04-16T21:17:35.172Z,15.27
2023-04-16T21:20:06.959Z,23.83
2023-04-16T21:22:34.733Z,19.75
2023-04-16T21:25:02.869Z,22.42
2023-04-16T21:27:30.591Z,23.80
2023-04-16T21:29:58.312Z,26.20
2023-04-16T21:32:26.069Z,18.27
2023-04-16T21:34:53.827Z,18.50
2023-04-16T21:37:22.906Z,21.17
2023-04-16T21:39:50.609Z,23.98
2023-04-16T21:42:18.285Z,19.77
2023-04-16T21:44:46.474Z,20.45
2023-04-16T21:47:14.362Z,18.27
2023-04-16T21:49:42.756Z,19.98
2023-04-16T21:52:14.224Z,21.67
2023-04-16T21:54:43.363Z,23.40
2023-04-16T21:57:11.554Z,22.70
2023-04-16T21:59:40.016Z,25.20
2023-04-16T22:02:07.899Z,20.35
2023-04-16T22:04:38.911Z,21.33
2023-04-16T22:07:08.750Z,20.88
2023-04-16T22:09:36.548Z,21.85
2023-04-16T22:12:10.097Z,16.67
2023-04-16T22:14:42.072Z,23.15
2023-04-16T22:17:17.080Z,23.58
2023-04-16T22:19:45.555Z,20.92
2023-04-16T22:22:13.356Z,17.17
2023-04-16T22:24:41.133Z,23.02
2023-04-16T22:27:10.250Z,20.88
2023-04-16T22:29:39.139Z,20.58
2023-04-16T22:32:07.028Z,16.15
2023-04-16T22:34:34.772Z,21.45
2023-04-16T22:37:03.064Z,18.63
2023-04-16T22:39:31.561Z,24.13
2023-04-16T22:41:59.248Z,20.58
2023-04-16T22:44:28.359Z,21.25
2023-04-16T22:46:56.139Z,21.25
2023-04-16T22:49:23.932Z,22.58
2023-04-16T22:51:51.648Z,21.42
2023-04-16T22:54:19.370Z,24.67
2023-04-16T22:56:48.603Z,23.85
2023-04-16T22:59:16.341Z,23.75
2023-04-16T23:01:45.481Z,22.52
2023-04-16T23:04:13.250Z,21.25
2023-04-16T23:06:42.094Z,22.52
2023-04-16T23:09:10.068Z,23.20
2023-04-16T23:11:38.066Z,24.83
2023-04-16T23:14:06.018Z,27.35
2023-04-16T23:16:33.743Z,24.40
2023-04-16T23:19:02.820Z,20.95
2023-04-16T23:21:30.959Z,18.88
2023-04-16T23:23:59.091Z,24.77
2023-04-16T23:26:26.775Z,22.48
2023-04-16T23:28:54.497Z,30.85
2023-04-16T23:31:22.222Z,20.58
2023-04-16T23:33:49.925Z,22.75
2023-04-16T23:36:19.013Z,21.88
2023-04-16T23:38:46.749Z,26.23
2023-04-16T23:41:14.416Z,23.55
2023-04-16T23:43:42.195Z,19.98
2023-04-16T23:46:10.176Z,25.00
2023-04-16T23:48:37.969Z,20.65
2023-04-16T23:51:05.952Z,24.20
2023-04-16T23:53:36.377Z,21.77
2023-04-16T23:56:04.108Z,23.73
2023-04-16T23:58:31.925Z,22.85
